sensor_id;sensor_type;location;lat;lon;timestamp;pressure;altitude;pressure_sealevel;temperature;humidity
75247;BME280;63844;50.042;19.224;2024-03-06T00:00:17;99107.05;;;2.57;100.00
75247;BME280;63844;50.042;19.224;2024-03-06T00:02:14;99102.92;;;2.55;100.00
75247;BME280;63844;50.042;19.224;2024-03-06T00:03:50;99102.33;;;2.52;100.00
75247;BME280;63844;50.042;19.224;2024-03-06T00:05:27;99103.75;;;2.51;100.00
75247;BME280;63844;50.042;19.224;2024-03-06T00:07:03;99112.18;;;2.50;100.00
75247;BME280;63844;50.042;19.224;2024-03-06T00:08:40;99113.41;;;2.50;100.00
75247;BME280;63844;50.042;19.224;2024-03-06T00:10:16;99113.30;;;2.47;100.00
75247;BME280;63844;50.042;19.224;2024-03-06T00:11:54;99113.01;;;2.45;100.00
75247;BME280;63844;50.042;19.224;2024-03-06T00:13:30;99115.33;;;2.43;100.00
75247;BME280;63844;50.042;19.224;2024-03-06T00:15:07;99115.46;;;2.39;100.00
75247;BME280;63844;50.042;19.224;2024-03-06T00:16:44;99115.18;;;2.38;100.00
75247;BME280;63844;50.042;19.224;2024-03-06T00:18:21;99117.83;;;2.36;100.00
75247;BME280;63844;50.042;19.224;2024-03-06T00:19:57;99116.37;;;2.33;100.00
75247;BME280;63844;50.042;19.224;2024-03-06T00:21:35;99120.34;;;2.29;100.00
75247;BME280;63844;50.042;19.224;2024-03-06T00:23:12;99121.66;;;2.25;100.00
75247;BME280;63844;50.042;19.224;2024-03-06T00:24:49;99122.95;;;2.23;100.00
75247;BME280;63844;50.042;19.224;2024-03-06T00:26:25;99120.19;;;2.22;100.00
75247;BME280;63844;50.042;19.224;2024-03-06T00:28:02;99121.18;;;2.18;100.00
75247;BME280;63844;50.042;19.224;2024-03-06T00:29:38;99121.64;;;2.14;100.00
75247;BME280;63844;50.042;19.224;2024-03-06T00:31:15;99119.13;;;2.11;100.00
75247;BME280;63844;50.042;19.224;2024-03-06T00:32:51;99121.35;;;2.07;100.00
75247;BME280;63844;50.042;19.224;2024-03-06T00:34:28;99120.56;;;2.03;100.00
75247;BME280;63844;50.042;19.224;2024-03-06T00:36:06;99122.39;;;2.00;100.00
75247;BME280;63844;50.042;19.224;2024-03-06T00:37:42;99123.91;;;1.96;100.00
75247;BME280;63844;50.042;19.224;2024-03-06T00:39:19;99124.04;;;1.92;100.00
75247;BME280;63844;50.042;19.224;2024-03-06T00:40:55;99125.37;;;1.88;100.00
75247;BME280;63844;50.042;19.224;2024-03-06T00:42:33;99125.96;;;1.85;100.00
75247;BME280;63844;50.042;19.224;2024-03-06T00:44:11;99125.00;;;1.83;100.00
75247;BME280;63844;50.042;19.224;2024-03-06T00:45:48;99127.68;;;1.80;100.00
75247;BME280;63844;50.042;19.224;2024-03-06T00:47:24;99129.27;;;1.80;100.00
75247;BME280;63844;50.042;19.224;2024-03-06T00:49:01;99129.48;;;1.78;100.00
75247;BME280;63844;50.042;19.224;2024-03-06T00:50:37;99129.46;;;1.73;100.00
75247;BME280;63844;50.042;19.224;2024-03-06T00:52:14;99131.33;;;1.69;100.00
75247;BME280;63844;50.042;19.224;2024-03-06T00:53:50;99129.19;;;1.64;100.00
75247;BME280;63844;50.042;19.224;2024-03-06T00:55:27;99131.48;;;1.63;100.00
75247;BME280;63844;50.042;19.224;2024-03-06T00:57:03;99131.52;;;1.62;100.00
75247;BME280;63844;50.042;19.224;2024-03-06T00:58:39;99128.48;;;1.58;100.00
75247;BME280;63844;50.042;19.224;2024-03-06T01:00:16;99129.98;;;1.54;100.00
75247;BME280;63844;50.042;19.224;2024-03-06T01:01:54;99128.45;;;1.52;100.00
75247;BME280;63844;50.042;19.224;2024-03-06T01:03:33;99125.98;;;1.47;100.00
75247;BME280;63844;50.042;19.224;2024-03-06T01:05:10;99125.73;;;1.43;100.00
75247;BME280;63844;50.042;19.224;2024-03-06T01:06:46;99124.23;;;1.41;100.00
75247;BME280;63844;50.042;19.224;2024-03-06T01:08:24;99126.04;;;1.39;100.00
75247;BME280;63844;50.042;19.224;2024-03-06T01:10:01;99123.48;;;1.37;100.00
75247;BME280;63844;50.042;19.224;2024-03-06T01:11:37;99126.88;;;1.33;100.00
75247;BME280;63844;50.042;19.224;2024-03-06T01:13:14;99131.16;;;1.29;100.00
75247;BME280;63844;50.042;19.224;2024-03-06T01:14:51;99133.12;;;1.28;100.00
75247;BME280;63844;50.042;19.224;2024-03-06T01:16:27;99134.88;;;1.27;100.00
75247;BME280;63844;50.042;19.224;2024-03-06T01:18:04;99138.08;;;1.25;100.00
75247;BME280;63844;50.042;19.224;2024-03-06T01:19:40;99139.48;;;1.26;100.00
75247;BME280;63844;50.042;19.224;2024-03-06T01:21:19;99135.13;;;1.24;100.00
75247;BME280;63844;50.042;19.224;2024-03-06T01:22:56;99133.45;;;1.22;100.00
75247;BME280;63844;50.042;19.224;2024-03-06T01:24:32;99133.99;;;1.21;100.00
75247;BME280;63844;50.042;19.224;2024-03-06T01:26:09;99135.79;;;1.20;100.00
75247;BME280;63844;50.042;19.224;2024-03-06T01:27:48;99133.52;;;1.19;100.00
75247;BME280;63844;50.042;19.224;2024-03-06T01:29:24;99133.33;;;1.20;100.00
75247;BME280;63844;50.042;19.224;2024-03-06T01:31:00;99133.80;;;1.22;100.00
75247;BME280;63844;50.042;19.224;2024-03-06T01:32:37;99136.94;;;1.22;100.00
75247;BME280;63844;50.042;19.224;2024-03-06T01:34:13;99135.41;;;1.20;100.00
75247;BME280;63844;50.042;19.224;2024-03-06T01:35:50;99141.30;;;1.21;100.00
75247;BME280;63844;50.042;19.224;2024-03-06T01:37:26;99142.73;;;1.21;100.00
75247;BME280;63844;50.042;19.224;2024-03-06T01:39:03;99144.96;;;1.22;100.00
75247;BME280;63844;50.042;19.224;2024-03-06T01:40:43;99146.67;;;1.23;100.00
75247;BME280;63844;50.042;19.224;2024-03-06T01:42:19;99149.83;;;1.22;100.00
75247;BME280;63844;50.042;19.224;2024-03-06T01:43:56;99150.41;;;1.20;100.00
75247;BME280;63844;50.042;19.224;2024-03-06T01:45:32;99149.38;;;1.20;100.00
75247;BME280;63844;50.042;19.224;2024-03-06T01:47:09;99150.83;;;1.18;100.00
75247;BME280;63844;50.042;19.224;2024-03-06T01:48:45;99150.77;;;1.13;100.00
75247;BME280;63844;50.042;19.224;2024-03-06T01:50:22;99155.76;;;1.09;100.00
75247;BME280;63844;50.042;19.224;2024-03-06T01:51:59;99157.36;;;1.07;100.00
75247;BME280;63844;50.042;19.224;2024-03-06T01:53:36;99159.67;;;0.98;100.00
75247;BME280;63844;50.042;19.224;2024-03-06T01:55:13;99159.31;;;0.99;100.00
75247;BME280;63844;50.042;19.224;2024-03-06T01:56:51;99156.77;;;0.96;100.00
75247;BME280;63844;50.042;19.224;2024-03-06T01:58:29;99157.85;;;0.87;100.00
75247;BME280;63844;50.042;19.224;2024-03-06T02:00:09;99160.63;;;0.80;100.00
75247;BME280;63844;50.042;19.224;2024-03-06T02:01:49;99163.85;;;0.68;100.00
75247;BME280;63844;50.042;19.224;2024-03-06T02:03:29;99159.23;;;0.58;100.00
75247;BME280;63844;50.042;19.224;2024-03-06T02:05:06;99160.09;;;0.51;100.00
75247;BME280;63844;50.042;19.224;2024-03-06T02:06:43;99154.66;;;0.52;100.00
75247;BME280;63844;50.042;19.224;2024-03-06T02:08:19;99151.61;;;0.48;100.00
75247;BME280;63844;50.042;19.224;2024-03-06T02:09:56;99153.00;;;0.49;100.00
75247;BME280;63844;50.042;19.224;2024-03-06T02:11:33;99155.66;;;0.46;100.00
75247;BME280;63844;50.042;19.224;2024-03-06T02:13:10;99152.54;;;0.46;100.00
75247;BME280;63844;50.042;19.224;2024-03-06T02:14:47;99154.20;;;0.49;100.00
75247;BME280;63844;50.042;19.224;2024-03-06T02:16:24;99154.52;;;0.51;100.00
75247;BME280;63844;50.042;19.224;2024-03-06T02:18:04;99157.25;;;0.53;100.00
75247;BME280;63844;50.042;19.224;2024-03-06T02:19:42;99160.00;;;0.55;100.00
75247;BME280;63844;50.042;19.224;2024-03-06T02:21:24;99157.98;;;0.59;100.00
75247;BME280;63844;50.042;19.224;2024-03-06T02:23:01;99158.19;;;0.58;100.00
75247;BME280;63844;50.042;19.224;2024-03-06T02:24:38;99159.71;;;0.59;100.00
75247;BME280;63844;50.042;19.224;2024-03-06T02:26:15;99160.02;;;0.61;100.00
75247;BME280;63844;50.042;19.224;2024-03-06T02:27:51;99161.17;;;0.64;100.00
75247;BME280;63844;50.042;19.224;2024-03-06T02:29:28;99161.61;;;0.61;100.00
75247;BME280;63844;50.042;19.224;2024-03-06T02:31:04;99161.11;;;0.59;100.00
75247;BME280;63844;50.042;19.224;2024-03-06T02:32:43;99157.67;;;0.57;100.00
75247;BME280;63844;50.042;19.224;2024-03-06T02:34:20;99157.41;;;0.54;100.00
75247;BME280;63844;50.042;19.224;2024-03-06T02:35:57;99157.27;;;0.44;100.00
75247;BME280;63844;50.042;19.224;2024-03-06T02:37:33;99158.91;;;0.41;100.00
75247;BME280;63844;50.042;19.224;2024-03-06T02:39:10;99158.17;;;0.35;100.00
75247;BME280;63844;50.042;19.224;2024-03-06T02:40:46;99159.06;;;0.27;100.00
75247;BME280;63844;50.042;19.224;2024-03-06T02:42:24;99158.64;;;0.22;100.00
75247;BME280;63844;50.042;19.224;2024-03-06T02:44:00;99155.48;;;0.24;100.00
75247;BME280;63844;50.042;19.224;2024-03-06T02:45:37;99157.37;;;0.24;100.00
75247;BME280;63844;50.042;19.224;2024-03-06T02:47:13;99157.31;;;0.27;100.00
75247;BME280;63844;50.042;19.224;2024-03-06T02:48:50;99158.30;;;0.29;100.00
75247;BME280;63844;50.042;19.224;2024-03-06T02:50:26;99163.14;;;0.22;100.00
75247;BME280;63844;50.042;19.224;2024-03-06T02:52:03;99162.83;;;0.21;100.00
75247;BME280;63844;50.042;19.224;2024-03-06T02:53:39;99162.85;;;0.20;100.00
75247;BME280;63844;50.042;19.224;2024-03-06T02:55:16;99162.92;;;0.17;100.00
75247;BME280;63844;50.042;19.224;2024-03-06T02:56:52;99162.73;;;0.09;100.00
75247;BME280;63844;50.042;19.224;2024-03-06T02:58:29;99167.18;;;0.05;100.00
75247;BME280;63844;50.042;19.224;2024-03-06T03:00:08;99167.10;;;0.00;100.00
75247;BME280;63844;50.042;19.224;2024-03-06T03:01:49;99169.69;;;0.01;100.00
75247;BME280;63844;50.042;19.224;2024-03-06T03:03:25;99171.71;;;0.04;100.00
75247;BME280;63844;50.042;19.224;2024-03-06T03:05:02;99174.30;;;0.06;100.00
75247;BME280;63844;50.042;19.224;2024-03-06T03:06:39;99174.08;;;0.07;100.00
75247;BME280;63844;50.042;19.224;2024-03-06T03:08:15;99177.23;;;0.06;100.00
75247;BME280;63844;50.042;19.224;2024-03-06T03:09:52;99174.80;;;0.06;100.00
75247;BME280;63844;50.042;19.224;2024-03-06T03:11:29;99174.29;;;0.06;100.00
75247;BME280;63844;50.042;19.224;2024-03-06T03:13:06;99178.17;;;0.04;100.00
75247;BME280;63844;50.042;19.224;2024-03-06T03:14:43;99178.75;;;0.00;100.00
75247;BME280;63844;50.042;19.224;2024-03-06T03:16:19;99181.27;;;0.05;100.00
75247;BME280;63844;50.042;19.224;2024-03-06T03:17:56;99181.21;;;0.07;100.00
75247;BME280;63844;50.042;19.224;2024-03-06T03:19:33;99182.18;;;0.11;100.00
75247;BME280;63844;50.042;19.224;2024-03-06T03:21:09;99181.91;;;0.08;100.00
75247;BME280;63844;50.042;19.224;2024-03-06T03:22:46;99185.71;;;0.08;100.00
75247;BME280;63844;50.042;19.224;2024-03-06T03:24:22;99185.89;;;0.09;100.00
75247;BME280;63844;50.042;19.224;2024-03-06T03:26:00;99187.95;;;0.09;100.00
75247;BME280;63844;50.042;19.224;2024-03-06T03:27:40;99186.31;;;0.13;100.00
75247;BME280;63844;50.042;19.224;2024-03-06T03:29:16;99188.64;;;0.10;100.00
75247;BME280;63844;50.042;19.224;2024-03-06T03:30:53;99191.64;;;0.09;100.00
75247;BME280;63844;50.042;19.224;2024-03-06T03:32:29;99190.39;;;0.10;100.00
75247;BME280;63844;50.042;19.224;2024-03-06T03:34:06;99188.25;;;0.11;100.00
75247;BME280;63844;50.042;19.224;2024-03-06T03:35:43;99187.73;;;0.13;100.00
75247;BME280;63844;50.042;19.224;2024-03-06T03:37:21;99189.27;;;0.14;100.00
75247;BME280;63844;50.042;19.224;2024-03-06T03:38:58;99192.67;;;0.17;100.00
75247;BME280;63844;50.042;19.224;2024-03-06T03:40:34;99192.63;;;0.19;100.00
75247;BME280;63844;50.042;19.224;2024-03-06T03:42:11;99190.98;;;0.15;100.00
75247;BME280;63844;50.042;19.224;2024-03-06T03:43:47;99196.52;;;0.07;100.00
75247;BME280;63844;50.042;19.224;2024-03-06T03:45:25;99194.48;;;0.06;100.00
75247;BME280;63844;50.042;19.224;2024-03-06T03:47:01;99193.13;;;0.04;100.00
75247;BME280;63844;50.042;19.224;2024-03-06T03:48:39;99192.23;;;0.06;100.00
75247;BME280;63844;50.042;19.224;2024-03-06T03:50:16;99189.58;;;0.07;100.00
75247;BME280;63844;50.042;19.224;2024-03-06T03:51:52;99186.46;;;0.06;100.00
75247;BME280;63844;50.042;19.224;2024-03-06T03:53:29;99187.87;;;0.05;100.00
75247;BME280;63844;50.042;19.224;2024-03-06T03:55:05;99189.98;;;0.04;100.00
75247;BME280;63844;50.042;19.224;2024-03-06T03:56:43;99190.66;;;0.05;100.00
75247;BME280;63844;50.042;19.224;2024-03-06T03:58:19;99193.79;;;0.05;100.00
75247;BME280;63844;50.042;19.224;2024-03-06T03:59:56;99190.55;;;0.03;100.00
75247;BME280;63844;50.042;19.224;2024-03-06T04:01:32;99193.68;;;0.02;100.00
75247;BME280;63844;50.042;19.224;2024-03-06T04:03:09;99195.55;;;0.05;100.00
75247;BME280;63844;50.042;19.224;2024-03-06T04:04:45;99199.57;;;0.04;100.00
75247;BME280;63844;50.042;19.224;2024-03-06T04:06:22;99198.45;;;-0.01;100.00
75247;BME280;63844;50.042;19.224;2024-03-06T04:07:59;99197.11;;;-0.04;100.00
75247;BME280;63844;50.042;19.224;2024-03-06T04:09:35;99197.23;;;-0.02;100.00
75247;BME280;63844;50.042;19.224;2024-03-06T04:11:12;99192.66;;;0.01;100.00
75247;BME280;63844;50.042;19.224;2024-03-06T04:12:48;99195.72;;;0.05;100.00
75247;BME280;63844;50.042;19.224;2024-03-06T04:14:25;99194.73;;;0.10;100.00
75247;BME280;63844;50.042;19.224;2024-03-06T04:16:03;99195.59;;;0.10;100.00
75247;BME280;63844;50.042;19.224;2024-03-06T04:17:40;99197.56;;;0.08;100.00
75247;BME280;63844;50.042;19.224;2024-03-06T04:19:17;99199.88;;;0.05;100.00
75247;BME280;63844;50.042;19.224;2024-03-06T04:20:54;99201.20;;;0.00;100.00
75247;BME280;63844;50.042;19.224;2024-03-06T04:22:31;99197.63;;;-0.04;100.00
75247;BME280;63844;50.042;19.224;2024-03-06T04:24:07;99200.70;;;-0.01;100.00
75247;BME280;63844;50.042;19.224;2024-03-06T04:25:44;99196.81;;;0.02;100.00
75247;BME280;63844;50.042;19.224;2024-03-06T04:27:21;99200.27;;;0.04;100.00
75247;BME280;63844;50.042;19.224;2024-03-06T04:28:57;99201.64;;;0.04;100.00
75247;BME280;63844;50.042;19.224;2024-03-06T04:30:34;99201.93;;;0.07;100.00
75247;BME280;63844;50.042;19.224;2024-03-06T04:32:10;99204.44;;;0.12;100.00
75247;BME280;63844;50.042;19.224;2024-03-06T04:33:47;99205.13;;;0.12;100.00
75247;BME280;63844;50.042;19.224;2024-03-06T04:35:23;99201.34;;;0.11;100.00
75247;BME280;63844;50.042;19.224;2024-03-06T04:37:00;99206.42;;;0.09;100.00
75247;BME280;63844;50.042;19.224;2024-03-06T04:38:38;99205.90;;;0.08;100.00
75247;BME280;63844;50.042;19.224;2024-03-06T04:40:14;99203.38;;;0.13;100.00
75247;BME280;63844;50.042;19.224;2024-03-06T04:41:54;99207.02;;;0.14;100.00
75247;BME280;63844;50.042;19.224;2024-03-06T04:43:30;99209.66;;;0.13;100.00
75247;BME280;63844;50.042;19.224;2024-03-06T04:45:11;99209.70;;;0.02;100.00
75247;BME280;63844;50.042;19.224;2024-03-06T04:46:51;99211.41;;;0.04;100.00
75247;BME280;63844;50.042;19.224;2024-03-06T04:48:27;99215.02;;;0.05;100.00
75247;BME280;63844;50.042;19.224;2024-03-06T04:50:08;99212.44;;;0.04;100.00
75247;BME280;63844;50.042;19.224;2024-03-06T04:51:46;99210.17;;;0.04;100.00
75247;BME280;63844;50.042;19.224;2024-03-06T04:53:22;99212.18;;;0.08;100.00
75247;BME280;63844;50.042;19.224;2024-03-06T04:54:58;99213.14;;;0.12;100.00
75247;BME280;63844;50.042;19.224;2024-03-06T04:56:35;99213.76;;;0.16;100.00
75247;BME280;63844;50.042;19.224;2024-03-06T04:58:12;99217.19;;;0.18;100.00
75247;BME280;63844;50.042;19.224;2024-03-06T04:59:48;99214.19;;;0.20;100.00
75247;BME280;63844;50.042;19.224;2024-03-06T05:01:25;99217.98;;;0.21;100.00
75247;BME280;63844;50.042;19.224;2024-03-06T05:03:01;99220.11;;;0.20;100.00
75247;BME280;63844;50.042;19.224;2024-03-06T05:04:38;99216.04;;;0.24;100.00
75247;BME280;63844;50.042;19.224;2024-03-06T05:06:14;99219.66;;;0.26;100.00
75247;BME280;63844;50.042;19.224;2024-03-06T05:07:51;99220.81;;;0.29;100.00
75247;BME280;63844;50.042;19.224;2024-03-06T05:09:28;99221.98;;;0.23;100.00
75247;BME280;63844;50.042;19.224;2024-03-06T05:11:04;99222.91;;;0.11;100.00
75247;BME280;63844;50.042;19.224;2024-03-06T05:12:41;99223.10;;;0.10;100.00
75247;BME280;63844;50.042;19.224;2024-03-06T05:14:17;99224.96;;;0.04;100.00
75247;BME280;63844;50.042;19.224;2024-03-06T05:15:54;99224.17;;;0.00;100.00
75247;BME280;63844;50.042;19.224;2024-03-06T05:17:30;99227.83;;;0.00;100.00
75247;BME280;63844;50.042;19.224;2024-03-06T05:19:07;99227.77;;;0.03;100.00
75247;BME280;63844;50.042;19.224;2024-03-06T05:20:43;99230.79;;;-0.00;100.00
75247;BME280;63844;50.042;19.224;2024-03-06T05:22:20;99229.79;;;-0.03;100.00
75247;BME280;63844;50.042;19.224;2024-03-06T05:23:57;99233.52;;;0.02;100.00
75247;BME280;63844;50.042;19.224;2024-03-06T05:25:34;99234.30;;;0.07;100.00
75247;BME280;63844;50.042;19.224;2024-03-06T05:27:10;99241.20;;;0.10;100.00
75247;BME280;63844;50.042;19.224;2024-03-06T05:28:53;99242.17;;;0.14;100.00
75247;BME280;63844;50.042;19.224;2024-03-06T05:30:30;99238.67;;;0.14;100.00
75247;BME280;63844;50.042;19.224;2024-03-06T05:32:06;99237.54;;;0.19;100.00
75247;BME280;63844;50.042;19.224;2024-03-06T05:33:47;99237.65;;;0.21;100.00
75247;BME280;63844;50.042;19.224;2024-03-06T05:35:24;99236.77;;;0.24;100.00
75247;BME280;63844;50.042;19.224;2024-03-06T05:37:01;99236.38;;;0.26;100.00
75247;BME280;63844;50.042;19.224;2024-03-06T05:38:40;99238.23;;;0.29;100.00
75247;BME280;63844;50.042;19.224;2024-03-06T05:40:17;99243.13;;;0.27;100.00
75247;BME280;63844;50.042;19.224;2024-03-06T05:41:55;99241.27;;;0.24;100.00
75247;BME280;63844;50.042;19.224;2024-03-06T05:43:31;99238.92;;;0.29;100.00
75247;BME280;63844;50.042;19.224;2024-03-06T05:45:08;99242.17;;;0.31;100.00
75247;BME280;63844;50.042;19.224;2024-03-06T05:46:47;99244.11;;;0.30;100.00
75247;BME280;63844;50.042;19.224;2024-03-06T05:48:23;99245.88;;;0.29;100.00
75247;BME280;63844;50.042;19.224;2024-03-06T05:50:00;99245.73;;;0.18;100.00
75247;BME280;63844;50.042;19.224;2024-03-06T05:51:40;99244.95;;;0.14;100.00
75247;BME280;63844;50.042;19.224;2024-03-06T05:53:17;99247.21;;;0.14;100.00
75247;BME280;63844;50.042;19.224;2024-03-06T05:54:53;99249.10;;;0.15;100.00
75247;BME280;63844;50.042;19.224;2024-03-06T05:56:30;99251.77;;;0.21;100.00
75247;BME280;63844;50.042;19.224;2024-03-06T05:58:06;99258.14;;;0.25;100.00
75247;BME280;63844;50.042;19.224;2024-03-06T05:59:43;99258.08;;;0.28;100.00
75247;BME280;63844;50.042;19.224;2024-03-06T06:01:19;99256.10;;;0.31;100.00
75247;BME280;63844;50.042;19.224;2024-03-06T06:02:56;99257.08;;;0.34;100.00
75247;BME280;63844;50.042;19.224;2024-03-06T06:04:33;99257.88;;;0.29;100.00
75247;BME280;63844;50.042;19.224;2024-03-06T06:06:09;99260.13;;;0.20;100.00
75247;BME280;63844;50.042;19.224;2024-03-06T06:07:46;99263.34;;;0.17;100.00
75247;BME280;63844;50.042;19.224;2024-03-06T06:09:23;99263.25;;;0.21;100.00
75247;BME280;63844;50.042;19.224;2024-03-06T06:10:59;99268.28;;;0.22;100.00
75247;BME280;63844;50.042;19.224;2024-03-06T06:12:35;99265.45;;;0.25;100.00
75247;BME280;63844;50.042;19.224;2024-03-06T06:14:12;99271.21;;;0.24;100.00
75247;BME280;63844;50.042;19.224;2024-03-06T06:15:51;99269.23;;;0.17;100.00
75247;BME280;63844;50.042;19.224;2024-03-06T06:17:27;99270.11;;;0.18;100.00
75247;BME280;63844;50.042;19.224;2024-03-06T06:19:04;99275.73;;;0.16;100.00
75247;BME280;63844;50.042;19.224;2024-03-06T06:20:41;99273.39;;;0.18;100.00
75247;BME280;63844;50.042;19.224;2024-03-06T06:22:18;99273.16;;;0.21;100.00
75247;BME280;63844;50.042;19.224;2024-03-06T06:23:55;99272.63;;;0.22;100.00
75247;BME280;63844;50.042;19.224;2024-03-06T06:25:32;99274.95;;;0.19;100.00
75247;BME280;63844;50.042;19.224;2024-03-06T06:27:08;99275.61;;;0.12;100.00
75247;BME280;63844;50.042;19.224;2024-03-06T06:28:45;99277.74;;;0.10;100.00
75247;BME280;63844;50.042;19.224;2024-03-06T06:30:22;99275.23;;;0.13;100.00
75247;BME280;63844;50.042;19.224;2024-03-06T06:31:59;99275.80;;;0.11;100.00
75247;BME280;63844;50.042;19.224;2024-03-06T06:33:35;99277.17;;;0.13;100.00
75247;BME280;63844;50.042;19.224;2024-03-06T06:35:12;99276.25;;;0.16;100.00
75247;BME280;63844;50.042;19.224;2024-03-06T06:36:49;99276.10;;;0.23;100.00
75247;BME280;63844;50.042;19.224;2024-03-06T06:38:26;99276.08;;;0.25;100.00
75247;BME280;63844;50.042;19.224;2024-03-06T06:40:02;99281.20;;;0.30;100.00
75247;BME280;63844;50.042;19.224;2024-03-06T06:41:42;99278.45;;;0.36;100.00
75247;BME280;63844;50.042;19.224;2024-03-06T06:43:19;99284.08;;;0.42;100.00
75247;BME280;63844;50.042;19.224;2024-03-06T06:44:56;99283.23;;;0.49;100.00
75247;BME280;63844;50.042;19.224;2024-03-06T06:46:32;99285.34;;;0.56;100.00
75247;BME280;63844;50.042;19.224;2024-03-06T06:48:09;99286.31;;;0.60;100.00
75247;BME280;63844;50.042;19.224;2024-03-06T06:49:45;99286.52;;;0.66;100.00
75247;BME280;63844;50.042;19.224;2024-03-06T06:51:22;99289.69;;;0.74;100.00
75247;BME280;63844;50.042;19.224;2024-03-06T06:52:59;99291.66;;;0.79;100.00
75247;BME280;63844;50.042;19.224;2024-03-06T06:54:36;99285.15;;;0.82;100.00
75247;BME280;63844;50.042;19.224;2024-03-06T06:56:13;99285.92;;;0.87;100.00
75247;BME280;63844;50.042;19.224;2024-03-06T06:57:50;99284.31;;;0.88;100.00
75247;BME280;63844;50.042;19.224;2024-03-06T06:59:27;99287.35;;;0.93;100.00
75247;BME280;63844;50.042;19.224;2024-03-06T07:01:04;99286.67;;;1.00;100.00
75247;BME280;63844;50.042;19.224;2024-03-06T07:02:41;99288.17;;;1.03;100.00
75247;BME280;63844;50.042;19.224;2024-03-06T07:04:17;99287.20;;;1.00;100.00
75247;BME280;63844;50.042;19.224;2024-03-06T07:05:56;99287.46;;;1.04;100.00
75247;BME280;63844;50.042;19.224;2024-03-06T07:07:34;99283.72;;;1.07;100.00
75247;BME280;63844;50.042;19.224;2024-03-06T07:09:12;99283.65;;;1.03;100.00
75247;BME280;63844;50.042;19.224;2024-03-06T07:10:48;99287.61;;;0.97;100.00
75247;BME280;63844;50.042;19.224;2024-03-06T07:12:25;99286.92;;;0.96;100.00
75247;BME280;63844;50.042;19.224;2024-03-06T07:14:01;99284.60;;;0.99;100.00
75247;BME280;63844;50.042;19.224;2024-03-06T07:15:38;99281.49;;;1.05;100.00
75247;BME280;63844;50.042;19.224;2024-03-06T07:17:14;99282.32;;;1.16;100.00
75247;BME280;63844;50.042;19.224;2024-03-06T07:18:51;99278.96;;;1.24;100.00
75247;BME280;63844;50.042;19.224;2024-03-06T07:20:27;99281.34;;;1.27;100.00
75247;BME280;63844;50.042;19.224;2024-03-06T07:22:05;99279.09;;;1.34;100.00
75247;BME280;63844;50.042;19.224;2024-03-06T07:23:42;99285.02;;;1.41;100.00
75247;BME280;63844;50.042;19.224;2024-03-06T07:25:18;99283.29;;;1.47;100.00
75247;BME280;63844;50.042;19.224;2024-03-06T07:26:55;99286.77;;;1.47;100.00
75247;BME280;63844;50.042;19.224;2024-03-06T07:28:31;99290.90;;;1.50;100.00
75247;BME280;63844;50.042;19.224;2024-03-06T07:30:09;99293.42;;;1.54;100.00
75247;BME280;63844;50.042;19.224;2024-03-06T07:31:47;99291.79;;;1.42;100.00
75247;BME280;63844;50.042;19.224;2024-03-06T07:33:24;99293.55;;;1.42;100.00
75247;BME280;63844;50.042;19.224;2024-03-06T07:35:00;99289.81;;;1.44;100.00
75247;BME280;63844;50.042;19.224;2024-03-06T07:36:37;99292.67;;;1.49;100.00
75247;BME280;63844;50.042;19.224;2024-03-06T07:38:13;99290.55;;;1.43;100.00
75247;BME280;63844;50.042;19.224;2024-03-06T07:39:51;99291.83;;;1.33;100.00
75247;BME280;63844;50.042;19.224;2024-03-06T07:41:27;99291.73;;;1.23;100.00
75247;BME280;63844;50.042;19.224;2024-03-06T07:43:04;99293.31;;;1.22;100.00
75247;BME280;63844;50.042;19.224;2024-03-06T07:44:41;99294.04;;;1.28;100.00
75247;BME280;63844;50.042;19.224;2024-03-06T07:46:17;99294.34;;;1.30;100.00
75247;BME280;63844;50.042;19.224;2024-03-06T07:47:54;99291.94;;;1.36;100.00
75247;BME280;63844;50.042;19.224;2024-03-06T07:49:30;99293.55;;;1.34;100.00
75247;BME280;63844;50.042;19.224;2024-03-06T07:51:07;99297.98;;;1.38;100.00
75247;BME280;63844;50.042;19.224;2024-03-06T07:52:45;99302.55;;;1.37;100.00
75247;BME280;63844;50.042;19.224;2024-03-06T07:54:21;99302.20;;;1.37;100.00
75247;BME280;63844;50.042;19.224;2024-03-06T07:55:56;99298.91;;;1.43;100.00
75247;BME280;63844;50.042;19.224;2024-03-06T07:57:32;99301.50;;;1.52;100.00
75247;BME280;63844;50.042;19.224;2024-03-06T07:59:07;99306.42;;;1.58;100.00
75247;BME280;63844;50.042;19.224;2024-03-06T08:00:44;99304.32;;;1.50;100.00
75247;BME280;63844;50.042;19.224;2024-03-06T08:02:19;99304.05;;;1.47;100.00
75247;BME280;63844;50.042;19.224;2024-03-06T08:03:55;99308.63;;;1.46;100.00
75247;BME280;63844;50.042;19.224;2024-03-06T08:05:30;99306.86;;;1.46;100.00
75247;BME280;63844;50.042;19.224;2024-03-06T08:07:08;99308.92;;;1.47;100.00
75247;BME280;63844;50.042;19.224;2024-03-06T08:08:44;99311.04;;;1.47;100.00
75247;BME280;63844;50.042;19.224;2024-03-06T08:10:20;99308.02;;;1.42;100.00
75247;BME280;63844;50.042;19.224;2024-03-06T08:11:55;99313.63;;;1.25;100.00
75247;BME280;63844;50.042;19.224;2024-03-06T08:13:31;99314.05;;;1.15;100.00
75247;BME280;63844;50.042;19.224;2024-03-06T08:15:09;99315.25;;;1.24;100.00
75247;BME280;63844;50.042;19.224;2024-03-06T08:16:45;99312.75;;;1.26;100.00
75247;BME280;63844;50.042;19.224;2024-03-06T08:18:20;99314.52;;;1.32;100.00
75247;BME280;63844;50.042;19.224;2024-03-06T08:19:56;99313.00;;;1.38;100.00
75247;BME280;63844;50.042;19.224;2024-03-06T08:21:31;99314.81;;;1.43;100.00
75247;BME280;63844;50.042;19.224;2024-03-06T08:23:07;99312.36;;;1.43;100.00
75247;BME280;63844;50.042;19.224;2024-03-06T08:24:43;99312.48;;;1.38;100.00
75247;BME280;63844;50.042;19.224;2024-03-06T08:26:19;99310.73;;;1.53;100.00